Terminal Aerodrome Forecast
Issued by NWS Cleveland, OH

Home | Current Version | Previous Version | Graphics & Text | Print | Product List | Glossary Off
Versions: 1 2 3 4 5 6 7 8 9 10 11 12 13 14 15 16 17 18 19

000
FTUS41 KCLE 302100 AAA
TAFYNG
TAF AMD
KYNG 302119Z 3021/3118 26007KT P6SM SCT040 BKN070
      TEMPO 3021/3101 3SM -TSRA BKN025CB
     FM310300 22004KT P6SM BKN070
     FM310600 22004KT P6SM SCT040
     FM311600 25008KT P6SM BKN040=

USA.gov is the U.S. government's official web portal to all federal, state and local government web resources and services.